Nevis, MN

7:10 AM CDT on September 27, 2016 (GMT -0500)
RAWS | | Change Station

Elev 1475 ft 46.86 °N, 94.73 °W | Updated 1 hour ago

Partly Cloudy
Partly Cloudy
44.0 °F
Feels Like 40 °F
N
7.0
Wind Variable Wind from West
Gusts 13.0 mph

Today
High -- | Low -- °F
--% Chance of Precip.
Yesterday
High -- | Low -- °F
Precip. -- in
Pressure 29.86 in
Visibility 10.0 miles
Clouds Few 3100 ft
Windchill 40 °F
Dew Point 40.0 °F
Humidity 87%
Rainfall in
Snow Depth Not available.
7:13 AM 7:05 PM
Waning Crescent, 12% visible
METAR KPKD 271153Z AUTO 30010KT 10SM FEW031 07/04 A2984 RMK AO2 SLP111 T00670039 10083 20067 58000 TSNO
Pressure 29.86 in
Visibility 10.0 miles
Clouds Few 3100 ft
Windchill 40 °F
Dew Point 40.0 °F
Humidity 87%
Rainfall in
Snow Depth Not available.
7:13 AM 7:05 PM
Waning Crescent, 12% visible
METAR KPKD 271153Z AUTO 30010KT 10SM FEW031 07/04 A2984 RMK AO2 SLP111 T00670039 10083 20067 58000 TSNO

10-Day Weather Forecast

Almanac

Astronomy

Sep. 27, 2016 Rise Set
Actual Time
Civil Twilight
Nautical Twilight
Astronomical Twilight
Moon
Length of Visible Light
Length of Day
Tomorrow will be .
, % of the Moon is Illuminated

Today's Extremes

State Highs State Lows

Community

WunderPhotos

Upload Photos

1,942,068 photos uploaded!

WunderBlog® & News

Nearby

Air Quality

  Air Quality AQ Index Pollutant
Not available.

Snow Depth

Station Depth Elevation

Earthquake Activity

City Distance Mag. Time & Date
Minimum magnitude displayed is 2.5.

Coastal Water Temperatures

Place Temperature

Stations

Nearby Weather Stations

Station Location Temp. Windchill Dew Point Humidity Wind Precip. Elev Updated Type
                   

Watches & Warnings

There are currently no watches in effect.